createdAt,value
2023-01-22T00:01:10.261Z,13.63
2023-01-22T00:03:37.583Z,13.47
2023-01-22T00:06:05.442Z,12.17
2023-01-22T00:08:33.843Z,13.77
2023-01-22T00:11:01.183Z,11.83
2023-01-22T00:13:28.837Z,12.83
2023-01-22T00:15:57.569Z,12.57
2023-01-22T00:18:24.471Z,15.40
2023-01-22T00:20:52.689Z,13.07
2023-01-22T00:23:20.226Z,13.73
2023-01-22T00:25:48.772Z,13.97
2023-01-22T00:28:16.864Z,13.03
2023-01-22T00:30:43.993Z,15.67
2023-01-22T00:33:11.174Z,14.17
2023-01-22T00:35:38.253Z,12.77
2023-01-22T00:38:05.983Z,13.30
2023-01-22T00:40:32.845Z,13.10
2023-01-22T00:43:01.033Z,13.03
2023-01-22T00:45:28.480Z,12.27
2023-01-22T00:47:55.325Z,11.83
2023-01-22T00:50:22.233Z,11.70
2023-01-22T00:52:49.138Z,12.10
2023-01-22T00:55:16.140Z,12.23
2023-01-22T00:57:43.261Z,12.50
2023-01-22T01:00:18.428Z,13.37
2023-01-22T01:03:05.499Z,13.83
2023-01-22T01:05:32.364Z,12.13
2023-01-22T01:08:00.012Z,11.77
2023-01-22T01:10:26.943Z,12.50
2023-01-22T01:12:53.787Z,13.10
2023-01-22T01:15:22.047Z,11.07
2023-01-22T01:17:48.992Z,12.93
2023-01-22T01:20:16.778Z,13.90
2023-01-22T01:22:43.808Z,12.73
2023-01-22T01:25:10.727Z,13.33
2023-01-22T01:27:37.583Z,12.87
2023-01-22T01:30:05.390Z,12.63
2023-01-22T01:32:33.546Z,12.80
2023-01-22T01:35:00.394Z,14.13
2023-01-22T01:37:27.219Z,12.23
2023-01-22T01:39:54.321Z,14.30
2023-01-22T01:42:29.059Z,12.80
2023-01-22T01:45:27.739Z,14.10
2023-01-22T01:48:03.231Z,13.13
2023-01-22T01:50:30.541Z,13.80
2023-01-22T01:53:00.698Z,13.50
2023-01-22T01:55:29.925Z,12.77
2023-01-22T01:58:00.967Z,15.27
2023-01-22T02:00:31.184Z,14.17
2023-01-22T02:03:00.013Z,13.10
2023-01-22T02:05:31.671Z,14.83
2023-01-22T02:07:59.495Z,14.33
2023-01-22T02:10:27.149Z,13.57
2023-01-22T02:12:58.304Z,12.93
2023-01-22T02:15:25.938Z,13.87
2023-01-22T02:17:52.828Z,14.07
2023-01-22T02:20:22.495Z,15.53
2023-01-22T02:22:50.862Z,14.83
2023-01-22T02:25:19.179Z,13.77
2023-01-22T02:27:46.096Z,13.03
2023-01-22T02:30:13.851Z,14.10
2023-01-22T02:32:40.705Z,12.70
2023-01-22T02:35:08.228Z,13.17
2023-01-22T02:37:35.110Z,14.40
2023-01-22T02:40:04.050Z,13.33
2023-01-22T02:42:30.973Z,13.20
2023-01-22T02:44:57.850Z,12.77
2023-01-22T02:47:24.925Z,14.10
2023-01-22T02:49:51.770Z,14.13
2023-01-22T02:52:18.647Z,14.20
2023-01-22T02:54:46.857Z,12.10
2023-01-22T02:57:15.048Z,12.93
2023-01-22T02:59:41.974Z,14.40
2023-01-22T03:02:11.078Z,14.87
2023-01-22T03:04:38.164Z,13.20
2023-01-22T03:07:05.477Z,13.67
2023-01-22T03:09:32.329Z,15.57
2023-01-22T03:11:59.241Z,14.23
2023-01-22T03:14:50.226Z,13.90
2023-01-22T03:17:36.655Z,12.67
2023-01-22T03:20:23.005Z,15.17
2023-01-22T03:22:49.840Z,12.97
2023-01-22T03:25:16.885Z,13.27
2023-01-22T03:28:04.899Z,13.03
2023-01-22T03:30:35.342Z,13.83
2023-01-22T03:33:02.250Z,14.27
2023-01-22T03:35:30.509Z,14.13
2023-01-22T03:38:07.285Z,13.23
2023-01-22T03:40:34.516Z,14.47
2023-01-22T03:43:01.552Z,13.77
2023-01-22T03:45:28.385Z,11.67
2023-01-22T03:47:56.689Z,11.93
2023-01-22T03:50:30.455Z,12.93
2023-01-22T03:52:58.379Z,13.03
2023-01-22T03:55:26.114Z,14.83
2023-01-22T03:57:54.260Z,14.90
2023-01-22T04:00:21.787Z,15.67
2023-01-22T04:02:50.447Z,13.60
2023-01-22T04:05:23.132Z,15.03
2023-01-22T04:07:50.782Z,14.33
2023-01-22T04:10:21.368Z,13.37
2023-01-22T04:12:48.615Z,14.10
2023-01-22T04:15:18.433Z,12.10
2023-01-22T04:17:46.109Z,13.60
2023-01-22T04:20:33.094Z,14.43
2023-01-22T04:23:17.668Z,17.00
2023-01-22T04:25:45.107Z,13.43
2023-01-22T04:28:12.054Z,13.33
2023-01-22T04:30:39.365Z,13.97
2023-01-22T04:33:24.406Z,14.03
2023-01-22T04:36:03.097Z,15.47
2023-01-22T04:38:29.918Z,13.40
2023-01-22T04:40:56.802Z,14.93
2023-01-22T04:43:23.676Z,15.37
2023-01-22T04:45:51.409Z,13.77
2023-01-22T04:48:20.850Z,15.43
2023-01-22T04:50:47.976Z,15.20
2023-01-22T04:53:16.233Z,14.67
2023-01-22T04:55:43.520Z,14.53
2023-01-22T04:58:11.449Z,15.70
2023-01-22T05:00:39.519Z,15.03
2023-01-22T05:03:06.671Z,14.10
2023-01-22T05:05:34.370Z,14.97
2023-01-22T05:08:01.322Z,15.73
2023-01-22T05:10:30.616Z,16.00
2023-01-22T05:13:01.928Z,14.43
2023-01-22T05:15:28.830Z,15.23
2023-01-22T05:17:58.944Z,14.27
2023-01-22T05:20:26.099Z,14.27
2023-01-22T05:22:53.158Z,17.20
2023-01-22T05:25:24.204Z,14.57
2023-01-22T05:27:52.518Z,14.93
2023-01-22T05:30:34.560Z,17.47
2023-01-22T05:33:15.331Z,16.40
2023-01-22T05:35:42.260Z,16.50
2023-01-22T05:38:10.097Z,16.70
2023-01-22T05:40:38.202Z,16.40
2023-01-22T05:43:07.108Z,15.83
2023-01-22T05:45:34.004Z,15.23
2023-01-22T05:48:33.227Z,15.63
2023-01-22T05:51:11.426Z,16.73
2023-01-22T05:53:38.731Z,17.07
2023-01-22T05:56:06.696Z,17.73
2023-01-22T05:58:38.802Z,17.90
2023-01-22T06:01:06.924Z,18.73
2023-01-22T06:03:40.479Z,17.43
2023-01-22T06:06:10.355Z,16.00
2023-01-22T06:08:38.074Z,16.03
2023-01-22T06:11:08.145Z,16.90
2023-01-22T06:13:35.097Z,16.17
2023-01-22T06:16:11.279Z,18.70
2023-01-22T06:18:53.006Z,15.20
2023-01-22T06:21:19.938Z,16.90
2023-01-22T06:23:46.925Z,15.83
2023-01-22T06:26:13.780Z,17.57
2023-01-22T06:28:41.876Z,16.80
2023-01-22T06:31:10.188Z,15.77
2023-01-22T06:33:38.024Z,16.97
2023-01-22T06:36:05.999Z,14.83
2023-01-22T06:38:33.182Z,17.63
2023-01-22T06:41:02.726Z,17.60
2023-01-22T06:43:31.647Z,18.90
2023-01-22T06:45:58.877Z,16.90
2023-01-22T06:48:50.161Z,17.57
2023-01-22T06:51:17.046Z,15.90
2023-01-22T06:53:44.194Z,17.77
2023-01-22T06:56:11.533Z,18.20
2023-01-22T06:58:39.524Z,18.53
2023-01-22T07:01:06.716Z,16.60
2023-01-22T07:03:33.903Z,17.30
2023-01-22T07:06:04.126Z,17.60
2023-01-22T07:08:32.736Z,16.40
2023-01-22T07:11:00.046Z,16.23
2023-01-22T07:13:27.221Z,16.97
2023-01-22T07:15:54.118Z,17.53
2023-01-22T07:18:23.736Z,17.73
2023-01-22T07:20:51.060Z,17.03
2023-01-22T07:23:19.362Z,17.10
2023-01-22T07:25:46.573Z,16.33
2023-01-22T07:28:15.006Z,16.97
2023-01-22T07:30:42.992Z,19.27
2023-01-22T07:33:11.492Z,17.27
2023-01-22T07:35:38.895Z,17.13
2023-01-22T07:38:06.174Z,16.57
2023-01-22T07:40:34.518Z,16.47
2023-01-22T07:43:05.629Z,18.23
2023-01-22T07:45:34.359Z,17.57
2023-01-22T07:48:01.234Z,17.43
2023-01-22T07:50:31.656Z,18.13
2023-01-22T07:53:00.564Z,17.67
2023-01-22T07:55:27.892Z,17.17
2023-01-22T07:58:00.156Z,18.10
2023-01-22T08:00:27.208Z,18.73
2023-01-22T08:02:54.153Z,16.03
2023-01-22T08:05:21.201Z,18.17
2023-01-22T08:07:48.063Z,18.47
2023-01-22T08:10:16.982Z,16.80
2023-01-22T08:12:46.264Z,22.83
2023-01-22T08:15:15.167Z,18.87
2023-01-22T08:17:42.290Z,16.90
2023-01-22T08:20:10.828Z,19.20
2023-01-22T08:22:37.823Z,18.43
2023-01-22T08:25:05.362Z,16.20
2023-01-22T08:27:34.986Z,17.13
2023-01-22T08:30:02.215Z,15.33
2023-01-22T08:32:31.025Z,16.40
2023-01-22T08:34:57.873Z,16.87
2023-01-22T08:37:25.018Z,17.47
2023-01-22T08:39:52.124Z,18.17
2023-01-22T08:42:19.067Z,16.63
2023-01-22T08:44:45.878Z,16.93
2023-01-22T08:47:12.815Z,18.73
2023-01-22T08:49:41.030Z,16.37
2023-01-22T08:52:07.941Z,19.30
2023-01-22T08:54:34.830Z,19.60
2023-01-22T08:57:01.736Z,19.83
2023-01-22T08:59:30.879Z,16.47
2023-01-22T09:01:58.416Z,17.33
2023-01-22T09:04:25.522Z,18.10
2023-01-22T09:06:53.801Z,18.33
2023-01-22T09:09:20.659Z,16.57
2023-01-22T09:11:47.637Z,18.77
2023-01-22T09:14:14.483Z,17.03
2023-01-22T09:16:41.349Z,17.13
2023-01-22T09:19:08.297Z,21.03
2023-01-22T09:21:37.298Z,19.73
2023-01-22T09:24:06.710Z,19.07
2023-01-22T09:26:33.985Z,18.57
2023-01-22T09:29:01.301Z,17.63
2023-01-22T09:31:28.319Z,18.27
2023-01-22T09:33:57.847Z,17.13
2023-01-22T09:36:24.778Z,17.50
2023-01-22T09:38:51.748Z,17.07
2023-01-22T09:41:26.654Z,16.10
2023-01-22T09:43:57.035Z,17.27
2023-01-22T09:46:28.976Z,19.30
2023-01-22T09:49:00.170Z,19.13
2023-01-22T09:51:27.049Z,18.33
2023-01-22T09:53:58.013Z,18.60
2023-01-22T09:56:33.797Z,17.83
2023-01-22T09:59:03.140Z,15.30
2023-01-22T10:01:30.742Z,15.80
2023-01-22T10:04:03.226Z,18.60
2023-01-22T10:06:30.219Z,15.80
2023-01-22T10:09:05.153Z,15.13
2023-01-22T10:11:33.453Z,14.73
2023-01-22T10:14:02.402Z,15.80
2023-01-22T10:16:29.347Z,14.50
2023-01-22T10:19:02.510Z,15.57
2023-01-22T10:21:31.248Z,15.17
2023-01-22T10:23:59.106Z,15.77
2023-01-22T10:26:35.805Z,14.50
2023-01-22T10:29:06.266Z,14.13
2023-01-22T10:31:35.939Z,15.83
2023-01-22T10:34:09.257Z,13.20
2023-01-22T10:36:36.298Z,15.63
2023-01-22T10:39:09.874Z,14.37
2023-01-22T10:41:38.681Z,15.67
2023-01-22T10:44:10.726Z,13.30
2023-01-22T10:46:37.656Z,13.93
2023-01-22T10:49:06.125Z,15.63
2023-01-22T10:51:36.428Z,15.23
2023-01-22T10:54:04.750Z,15.03
2023-01-22T10:56:34.623Z,12.90
2023-01-22T10:59:16.843Z,13.10
2023-01-22T11:01:43.828Z,15.53
2023-01-22T11:04:13.818Z,13.83
2023-01-22T11:06:44.541Z,14.03
2023-01-22T11:09:17.093Z,10.90
2023-01-22T11:11:47.153Z,11.47
2023-01-22T11:14:21.599Z,11.30
2023-01-22T11:16:51.670Z,13.53
2023-01-22T11:19:32.630Z,12.43
2023-01-22T11:22:11.800Z,11.97
2023-01-22T11:24:42.798Z,12.30
2023-01-22T11:27:39.473Z,12.00
2023-01-22T11:30:29.580Z,12.83
2023-01-22T11:33:05.103Z,13.73
2023-01-22T11:35:37.151Z,13.77
2023-01-22T11:38:17.117Z,13.33
2023-01-22T11:41:00.923Z,15.63
2023-01-22T11:43:43.705Z,16.50
2023-01-22T11:46:32.910Z,13.47
2023-01-22T11:49:11.091Z,12.20
2023-01-22T11:51:50.725Z,10.27
2023-01-22T11:54:36.501Z,9.07
2023-01-22T11:57:15.855Z,9.13
2023-01-22T12:00:03.654Z,7.77
2023-01-22T12:02:54.459Z,8.37
2023-01-22T12:05:35.209Z,8.93
2023-01-22T12:08:25.432Z,9.73
2023-01-22T12:11:23.349Z,8.90
2023-01-22T12:14:11.680Z,7.93
2023-01-22T12:16:45.296Z,9.17
2023-01-22T12:19:34.421Z,9.10
2023-01-22T12:22:07.100Z,9.57
2023-01-22T12:24:38.569Z,9.20
2023-01-22T12:27:12.166Z,10.33
2023-01-22T12:29:43.564Z,10.47
2023-01-22T12:32:15.172Z,9.53
2023-01-22T12:34:48.356Z,11.00
2023-01-22T12:37:17.833Z,9.87
2023-01-22T12:39:56.318Z,9.93
2023-01-22T12:42:30.759Z,10.60
2023-01-22T12:45:05.202Z,10.23
2023-01-22T12:47:40.595Z,8.17
2023-01-22T12:50:20.030Z,11.20
2023-01-22T12:52:58.481Z,12.03
2023-01-22T12:55:31.420Z,9.93
2023-01-22T12:57:59.158Z,10.03
2023-01-22T13:00:31.666Z,10.23
2023-01-22T13:02:58.662Z,10.30
2023-01-22T13:05:50.872Z,10.70
2023-01-22T13:08:25.712Z,9.93
2023-01-22T13:10:55.543Z,11.37
2023-01-22T13:13:26.849Z,11.67
2023-01-22T13:15:56.281Z,12.00
2023-01-22T13:18:26.076Z,12.03
2023-01-22T13:21:02.706Z,9.83
2023-01-22T13:23:31.455Z,11.73
2023-01-22T13:25:59.368Z,12.37
2023-01-22T13:28:27.326Z,10.20
2023-01-22T13:30:59.898Z,11.03
2023-01-22T13:33:27.446Z,10.30
2023-01-22T13:35:56.253Z,11.40
2023-01-22T13:38:24.983Z,12.03
2023-01-22T13:40:56.730Z,12.17
2023-01-22T13:43:24.547Z,11.73
2023-01-22T13:45:53.197Z,10.30
2023-01-22T13:48:22.508Z,12.73
2023-01-22T13:50:56.385Z,10.80
2023-01-22T13:53:28.823Z,11.33
2023-01-22T13:55:55.980Z,11.73
2023-01-22T13:58:47.259Z,10.60
2023-01-22T14:01:27.938Z,12.07
2023-01-22T14:03:59.697Z,13.03
2023-01-22T14:06:28.654Z,13.27
2023-01-22T14:08:57.498Z,13.63
2023-01-22T14:11:24.406Z,11.30
2023-01-22T14:13:53.088Z,10.43
2023-01-22T14:16:20.003Z,11.13
2023-01-22T14:18:46.991Z,11.90
2023-01-22T14:21:14.566Z,13.27
2023-01-22T14:23:42.867Z,12.27
2023-01-22T14:26:09.914Z,11.70
2023-01-22T14:28:37.386Z,11.87
2023-01-22T14:31:05.060Z,11.43
2023-01-22T14:33:33.721Z,11.97
2023-01-22T14:36:01.066Z,9.77
2023-01-22T14:38:28.570Z,10.30
2023-01-22T14:40:56.812Z,10.53
2023-01-22T14:43:23.953Z,11.47
2023-01-22T14:45:51.597Z,10.53
2023-01-22T14:48:20.221Z,11.10
2023-01-22T14:50:48.700Z,11.47
2023-01-22T14:53:16.708Z,11.27
2023-01-22T14:55:45.331Z,10.57
2023-01-22T14:58:13.646Z,11.63
2023-01-22T15:00:40.561Z,11.43
2023-01-22T15:03:07.476Z,9.60
2023-01-22T15:05:35.833Z,10.90
2023-01-22T15:08:02.962Z,11.93
2023-01-22T15:10:30.031Z,10.63
2023-01-22T15:12:56.876Z,11.50
2023-01-22T15:15:28.218Z,11.23
2023-01-22T15:17:57.053Z,11.77
2023-01-22T15:20:24.177Z,11.73
2023-01-22T15:22:51.144Z,10.77
2023-01-22T15:25:18.298Z,14.80
2023-01-22T15:27:45.575Z,10.97
2023-01-22T15:30:13.793Z,11.63
2023-01-22T15:32:42.263Z,11.43
2023-01-22T15:35:09.771Z,12.50
2023-01-22T15:37:36.829Z,11.73
2023-01-22T15:40:04.519Z,10.67
2023-01-22T15:42:32.048Z,10.87
2023-01-22T15:44:59.223Z,12.37
2023-01-22T15:47:26.062Z,11.83
2023-01-22T15:49:54.258Z,10.13
2023-01-22T15:52:21.054Z,11.70
2023-01-22T15:54:48.072Z,11.17
2023-01-22T15:57:15.103Z,10.77
2023-01-22T15:59:42.056Z,11.90
2023-01-22T16:02:10.445Z,10.30
2023-01-22T16:04:37.338Z,10.57
2023-01-22T16:07:05.605Z,11.03
2023-01-22T16:09:32.456Z,10.77
2023-01-22T16:11:59.391Z,11.27
2023-01-22T16:14:28.228Z,10.40
2023-01-22T16:16:55.183Z,10.43
2023-01-22T16:19:24.280Z,11.73
2023-01-22T16:21:53.179Z,10.10
2023-01-22T16:24:21.344Z,10.57
2023-01-22T16:26:48.291Z,10.23
2023-01-22T16:29:15.116Z,9.70
2023-01-22T16:31:42.068Z,10.70
2023-01-22T16:34:11.107Z,11.70
2023-01-22T16:36:38.522Z,12.70
2023-01-22T16:39:05.969Z,11.73
2023-01-22T16:41:35.227Z,11.33
2023-01-22T16:44:06.667Z,10.37
2023-01-22T16:46:34.547Z,9.80
2023-01-22T16:49:04.679Z,9.53
2023-01-22T16:51:35.992Z,9.43
2023-01-22T16:54:03.456Z,9.13
2023-01-22T16:56:30.415Z,9.87
2023-01-22T16:58:59.082Z,13.33
2023-01-22T17:01:28.240Z,13.73
2023-01-22T17:03:55.188Z,11.83
2023-01-22T17:06:25.009Z,12.47
2023-01-22T17:08:52.438Z,12.07
2023-01-22T17:11:19.755Z,10.77
2023-01-22T17:13:47.285Z,11.97
2023-01-22T17:16:16.384Z,11.77
2023-01-22T17:18:43.390Z,11.47
2023-01-22T17:21:13.473Z,11.67
2023-01-22T17:23:40.724Z,9.87
2023-01-22T17:26:09.439Z,9.87
2023-01-22T17:28:37.578Z,10.37
2023-01-22T17:31:06.857Z,10.47
2023-01-22T17:33:36.063Z,10.87
2023-01-22T17:36:03.920Z,11.97
2023-01-22T17:38:32.805Z,9.53
2023-01-22T17:41:06.427Z,11.20
2023-01-22T17:43:34.416Z,10.10
2023-01-22T17:46:01.371Z,11.60
2023-01-22T17:48:30.016Z,10.10
2023-01-22T17:51:03.925Z,10.53
2023-01-22T17:53:30.980Z,11.70
2023-01-22T17:56:08.769Z,11.57
2023-01-22T17:58:35.734Z,11.80
2023-01-22T18:01:04.409Z,13.63
2023-01-22T18:03:31.408Z,12.47
2023-01-22T18:05:58.347Z,11.13
2023-01-22T18:08:28.079Z,12.63
2023-01-22T18:10:55.259Z,12.17
2023-01-22T18:13:22.203Z,11.13
2023-01-22T18:15:49.269Z,11.40
2023-01-22T18:18:16.607Z,11.60
2023-01-22T18:20:44.442Z,11.57
2023-01-22T18:23:11.786Z,13.33
2023-01-22T18:25:46.686Z,11.40
2023-01-22T18:28:14.900Z,12.17
2023-01-22T18:30:42.117Z,10.20
2023-01-22T18:33:10.245Z,13.30
2023-01-22T18:35:37.965Z,10.70
2023-01-22T18:38:04.831Z,11.90
2023-01-22T18:40:31.827Z,9.10
2023-01-22T18:43:00.159Z,10.90
2023-01-22T18:45:27.060Z,11.07
2023-01-22T18:47:54.294Z,12.20
2023-01-22T18:50:21.408Z,12.23
2023-01-22T18:52:49.209Z,12.37
2023-01-22T18:55:17.097Z,11.47
2023-01-22T18:57:46.300Z,12.43
2023-01-22T19:00:15.472Z,13.13
2023-01-22T19:02:43.108Z,11.07
2023-01-22T19:05:10.033Z,10.77
2023-01-22T19:07:38.143Z,10.67
2023-01-22T19:10:07.769Z,14.23
2023-01-22T19:12:34.678Z,11.20
2023-01-22T19:15:01.637Z,12.37
2023-01-22T19:17:29.844Z,11.03
2023-01-22T19:19:56.664Z,10.07
2023-01-22T19:22:23.796Z,11.00
2023-01-22T19:24:50.779Z,10.03
2023-01-22T19:27:17.946Z,10.40
2023-01-22T19:29:46.650Z,11.17
2023-01-22T19:32:16.382Z,9.63
2023-01-22T19:34:44.723Z,10.90
2023-01-22T19:37:11.595Z,10.73
2023-01-22T19:39:40.810Z,10.33
2023-01-22T19:42:08.403Z,10.67
2023-01-22T19:44:35.686Z,11.53
2023-01-22T19:47:02.709Z,11.30
2023-01-22T19:49:30.083Z,10.57
2023-01-22T19:51:58.528Z,15.33
2023-01-22T19:54:25.512Z,11.97
2023-01-22T19:56:53.218Z,10.10
2023-01-22T19:59:22.953Z,11.80
2023-01-22T20:01:50.672Z,11.17
2023-01-22T20:04:21.396Z,10.70
2023-01-22T20:06:51.180Z,11.67
2023-01-22T20:09:21.611Z,9.83
2023-01-22T20:11:50.629Z,11.43
2023-01-22T20:14:17.418Z,11.23
2023-01-22T20:16:45.414Z,11.80
2023-01-22T20:19:12.277Z,12.37
2023-01-22T20:21:39.160Z,12.03
2023-01-22T20:24:07.015Z,10.60
2023-01-22T20:26:35.854Z,11.27
2023-01-22T20:29:02.797Z,11.40
2023-01-22T20:31:29.724Z,10.43
2023-01-22T20:33:57.044Z,12.27
2023-01-22T20:36:24.917Z,11.37
2023-01-22T20:38:53.263Z,11.77
2023-01-22T20:41:21.493Z,11.43
2023-01-22T20:43:49.705Z,10.43
2023-01-22T20:46:19.425Z,10.67
2023-01-22T20:48:47.064Z,11.40
2023-01-22T20:51:16.344Z,11.40
2023-01-22T20:53:43.397Z,10.53
2023-01-22T20:56:20.951Z,10.57
2023-01-22T20:58:54.066Z,10.63
2023-01-22T21:01:20.925Z,11.77
2023-01-22T21:03:48.565Z,11.13
2023-01-22T21:06:18.302Z,10.27
2023-01-22T21:08:49.952Z,11.63
2023-01-22T21:11:19.638Z,11.37
2023-01-22T21:13:46.948Z,11.17
2023-01-22T21:16:17.367Z,10.77
2023-01-22T21:18:46.176Z,11.30
2023-01-22T21:21:15.375Z,11.17
2023-01-22T21:23:42.274Z,10.87
2023-01-22T21:26:12.082Z,10.80
2023-01-22T21:28:39.910Z,11.67
2023-01-22T21:31:08.921Z,12.47
2023-01-22T21:33:37.757Z,11.57
2023-01-22T21:36:05.910Z,11.07
2023-01-22T21:38:33.277Z,11.27
2023-01-22T21:41:05.078Z,10.73
2023-01-22T21:43:50.618Z,10.33
2023-01-22T21:46:25.157Z,11.47
2023-01-22T21:48:55.201Z,11.47
2023-01-22T21:51:22.175Z,10.23
2023-01-22T21:53:49.109Z,11.77
2023-01-22T21:56:15.997Z,11.17
2023-01-22T21:58:45.167Z,11.23
2023-01-22T22:01:15.148Z,11.20
2023-01-22T22:03:42.596Z,10.50
2023-01-22T22:06:13.120Z,10.83
2023-01-22T22:08:42.317Z,10.50
2023-01-22T22:11:09.975Z,11.07
2023-01-22T22:13:36.875Z,11.50
2023-01-22T22:16:05.781Z,11.37
2023-01-22T22:18:32.674Z,11.03
2023-01-22T22:21:01.275Z,13.10
2023-01-22T22:23:30.611Z,11.23
2023-01-22T22:25:57.782Z,11.57
2023-01-22T22:28:25.029Z,11.00
2023-01-22T22:30:52.390Z,11.20
2023-01-22T22:33:19.691Z,11.00
2023-01-22T22:35:47.179Z,11.20
2023-01-22T22:38:14.320Z,11.20
2023-01-22T22:40:42.542Z,11.93
2023-01-22T22:43:09.403Z,11.47
2023-01-22T22:45:37.571Z,11.13
2023-01-22T22:48:05.239Z,11.70
2023-01-22T22:50:32.360Z,11.20
2023-01-22T22:52:59.250Z,11.50
2023-01-22T22:55:28.539Z,11.33
2023-01-22T22:57:56.666Z,10.70
2023-01-22T23:00:24.333Z,11.43
2023-01-22T23:02:51.201Z,10.53
2023-01-22T23:05:18.088Z,11.43
2023-01-22T23:07:44.902Z,11.57
2023-01-22T23:10:28.632Z,11.53
2023-01-22T23:12:58.882Z,11.33
2023-01-22T23:15:27.061Z,12.80
2023-01-22T23:17:54.637Z,11.50
2023-01-22T23:20:22.500Z,11.23
2023-01-22T23:22:52.297Z,11.60
2023-01-22T23:25:19.226Z,11.27
2023-01-22T23:27:46.189Z,10.80
2023-01-22T23:30:14.737Z,10.80
2023-01-22T23:32:42.684Z,10.93
2023-01-22T23:35:10.160Z,12.00
2023-01-22T23:37:37.029Z,11.10
2023-01-22T23:40:04.892Z,13.33
2023-01-22T23:42:31.800Z,11.53
2023-01-22T23:44:58.647Z,11.67
2023-01-22T23:47:27.264Z,14.23
2023-01-22T23:49:54.202Z,11.87
2023-01-22T23:52:21.325Z,11.67
2023-01-22T23:54:48.418Z,12.90
2023-01-22T23:57:15.420Z,12.70
2023-01-22T23:59:42.261Z,11.80
